Terminal Aerodrome Forecast
Issued by NWS

Home | Current Version | Previous Version | Text Only | Print | Product List | Glossary On
Versions: 1 2 3 4 5 6 7 8 9 10 11 12
000
FTUS45 KVEF 250520
TAFDAG
TAF
KDAG 250520Z 2506/2606 26033G43KT P6SM FEW150 BKN200
     FM251300 25025G35KT P6SM FEW150 BKN200
     FM252300 31012G24KT P6SM SCT200
     FM260400 27014KT P6SM BKN250=

USA.gov is the U.S. government's official web portal to all federal, state and local government web resources and services.